createdAt,value
2023-01-13T00:01:12.826Z,1.70
2023-01-13T00:03:43.779Z,2.00
2023-01-13T00:06:17.498Z,1.50
2023-01-13T00:08:50.636Z,3.40
2023-01-13T00:11:26.497Z,2.60
2023-01-13T00:13:57.053Z,1.90
2023-01-13T00:16:27.570Z,2.70
2023-01-13T00:18:58.183Z,3.30
2023-01-13T00:21:28.719Z,1.50
2023-01-13T00:23:59.183Z,2.50
2023-01-13T00:26:33.715Z,4.70
2023-01-13T00:29:04.610Z,3.40
2023-01-13T00:31:35.217Z,3.00
2023-01-13T00:34:05.911Z,2.10
2023-01-13T00:36:36.435Z,2.00
2023-01-13T00:39:06.902Z,3.40
2023-01-13T00:41:51.460Z,0.90
2023-01-13T00:44:22.235Z,1.90
2023-01-13T00:46:52.771Z,1.70
2023-01-13T00:49:23.303Z,3.40
2023-01-13T00:51:53.815Z,3.80
2023-01-13T00:54:25.444Z,2.50
2023-01-13T00:56:56.310Z,1.80
2023-01-13T00:59:26.758Z,3.80
2023-01-13T01:01:57.683Z,1.60
2023-01-13T01:04:28.262Z,2.20
2023-01-13T01:06:59.343Z,2.40
2023-01-13T01:09:32.897Z,2.20
2023-01-13T01:12:03.729Z,2.00
2023-01-13T01:14:34.202Z,3.50
2023-01-13T01:17:04.801Z,1.10
2023-01-13T01:19:37.523Z,2.80
2023-01-13T01:22:08.048Z,1.00
2023-01-13T01:24:39.481Z,1.30
2023-01-13T01:27:11.717Z,3.30
2023-01-13T01:29:43.393Z,3.00
2023-01-13T01:32:15.451Z,1.30
2023-01-13T01:34:47.411Z,2.10
2023-01-13T01:37:19.694Z,1.30
2023-01-13T01:39:51.424Z,2.80
2023-01-13T01:42:42.895Z,2.70
2023-01-13T01:45:21.243Z,1.80
2023-01-13T01:47:56.751Z,1.40
2023-01-13T01:50:29.020Z,2.50
2023-01-13T01:53:04.769Z,1.60
2023-01-13T01:55:38.452Z,3.20
2023-01-13T01:58:13.757Z,1.40
2023-01-13T02:00:45.505Z,1.70
2023-01-13T02:03:18.782Z,1.80
2023-01-13T02:08:20.822Z,1.00
2023-01-13T02:10:56.472Z,0.80
2023-01-13T02:13:29.013Z,1.00
2023-01-13T02:16:07.836Z,2.50
2023-01-13T02:18:50.812Z,1.10
2023-01-13T02:31:25.616Z,1.10
2023-01-13T02:34:05.784Z,0.60
2023-01-13T02:36:41.641Z,1.90
2023-01-13T02:39:17.829Z,1.40
2023-01-13T02:42:15.921Z,2.00
2023-01-13T02:44:49.950Z,1.40
2023-01-13T02:47:23.550Z,0.80
2023-01-13T02:49:58.598Z,1.60
2023-01-13T02:52:47.221Z,1.30
2023-01-13T02:55:22.427Z,1.10
2023-01-13T02:57:54.303Z,2.50
2023-01-13T03:00:25.813Z,0.90
2023-01-13T03:02:56.154Z,1.80
2023-01-13T03:05:26.683Z,1.90
2023-01-13T03:08:23.126Z,0.90
2023-01-13T03:11:04.132Z,1.10
2023-01-13T03:13:48.917Z,1.60
2023-01-13T03:16:27.628Z,0.60
2023-01-13T03:19:07.088Z,0.50
2023-01-13T03:21:41.821Z,1.10
2023-01-13T03:24:17.230Z,1.20
2023-01-13T03:26:50.196Z,0.50
2023-01-13T03:32:01.013Z,1.10
2023-01-13T03:34:34.976Z,0.60
2023-01-13T03:37:08.243Z,1.30
2023-01-13T03:39:41.045Z,0.70
2023-01-13T03:42:14.816Z,0.50
2023-01-13T03:44:47.556Z,2.30
2023-01-13T03:47:24.300Z,2.20
2023-01-13T03:49:58.431Z,1.70
2023-01-13T03:52:31.005Z,0.90
2023-01-13T03:55:05.271Z,0.70
2023-01-13T03:57:37.968Z,0.90
2023-01-13T04:00:12.090Z,0.50
2023-01-13T04:02:50.219Z,1.30
2023-01-13T04:05:21.042Z,0.90
2023-01-13T04:07:55.278Z,0.90
2023-01-13T04:10:31.237Z,1.20
2023-01-13T04:13:05.233Z,1.40
2023-01-13T04:15:38.226Z,0.70
2023-01-13T04:20:43.359Z,0.50
2023-01-13T04:23:14.658Z,1.20
2023-01-13T04:25:46.678Z,0.40
2023-01-13T04:28:17.642Z,1.40
2023-01-13T04:30:48.573Z,0.80
2023-01-13T04:33:20.219Z,0.50
2023-01-13T04:35:52.636Z,1.30
2023-01-13T04:38:25.103Z,0.40
2023-01-13T04:40:55.535Z,0.60
2023-01-13T04:43:25.909Z,1.00
2023-01-13T04:45:56.253Z,0.90
2023-01-13T04:48:26.610Z,0.50
2023-01-13T04:50:56.932Z,0.60
2023-01-13T04:53:27.289Z,1.30
2023-01-13T04:55:57.718Z,0.50
2023-01-13T04:58:28.128Z,0.40
2023-01-13T05:00:58.499Z,1.00
2023-01-13T05:03:28.933Z,0.80
2023-01-13T05:05:59.720Z,0.70
2023-01-13T05:08:30.155Z,0.60
2023-01-13T05:11:22.380Z,0.70
2023-01-13T05:14:10.586Z,0.50
2023-01-13T05:16:58.871Z,1.60
2023-01-13T05:19:29.648Z,1.40
2023-01-13T05:22:23.433Z,0.30
2023-01-13T05:25:11.531Z,1.10
2023-01-13T05:27:41.928Z,0.30
2023-01-13T05:30:14.021Z,1.10
2023-01-13T05:32:44.401Z,0.50
2023-01-13T05:35:16.044Z,1.00
2023-01-13T05:37:46.515Z,2.10
2023-01-13T05:40:36.800Z,3.50
2023-01-13T05:43:22.836Z,1.90
2023-01-13T05:45:55.135Z,2.40
2023-01-13T05:48:27.815Z,0.70
2023-01-13T05:50:58.465Z,1.60
2023-01-13T05:53:29.565Z,2.50
2023-01-13T05:56:00.269Z,5.00
2023-01-13T05:58:30.808Z,0.50
2023-01-13T06:01:04.367Z,1.40
2023-01-13T06:03:34.820Z,0.30
2023-01-13T06:06:06.018Z,2.00
2023-01-13T06:08:38.665Z,0.40
2023-01-13T06:11:10.093Z,1.30
2023-01-13T06:13:40.425Z,2.80
2023-01-13T06:16:11.763Z,1.40
2023-01-13T06:18:42.103Z,1.70
2023-01-13T06:21:12.643Z,1.60
2023-01-13T06:23:43.176Z,1.20
2023-01-13T06:26:17.391Z,1.50
2023-01-13T06:28:47.787Z,2.00
2023-01-13T06:31:19.172Z,1.50
2023-01-13T06:33:53.265Z,0.50
2023-01-13T06:36:25.741Z,2.90
2023-01-13T06:38:59.653Z,1.50
2023-01-13T06:41:51.867Z,1.10
2023-01-13T06:44:22.829Z,1.10
2023-01-13T06:46:53.602Z,2.50
2023-01-13T06:49:23.984Z,1.70
2023-01-13T06:51:54.421Z,2.60
2023-01-13T06:54:27.006Z,1.10
2023-01-13T06:57:00.722Z,3.20
2023-01-13T07:01:59.964Z,1.10
2023-01-13T07:04:30.401Z,2.70
2023-01-13T07:07:00.859Z,1.50
2023-01-13T07:09:31.176Z,0.60
2023-01-13T07:12:01.660Z,0.90
2023-01-13T07:14:49.639Z,1.50
2023-01-13T07:17:25.293Z,1.10
2023-01-13T07:19:55.890Z,3.30
2023-01-13T07:22:26.359Z,1.40
2023-01-13T07:24:56.633Z,0.50
2023-01-13T07:27:26.926Z,1.70
2023-01-13T07:29:57.263Z,0.80
2023-01-13T07:32:27.686Z,1.90
2023-01-13T07:34:58.650Z,1.80
2023-01-13T07:37:29.044Z,0.60
2023-01-13T07:39:59.348Z,1.90
2023-01-13T07:42:47.037Z,1.30
2023-01-13T07:45:17.361Z,1.50
2023-01-13T07:47:47.632Z,4.30
2023-01-13T07:50:18.311Z,1.40
2023-01-13T07:52:48.771Z,2.20
2023-01-13T07:55:19.162Z,2.70
2023-01-13T07:57:50.299Z,1.20
2023-01-13T08:00:22.367Z,1.30
2023-01-13T08:02:52.861Z,1.40
2023-01-13T08:05:23.236Z,1.70
2023-01-13T08:07:53.592Z,1.60
2023-01-13T08:10:23.901Z,5.80
2023-01-13T08:13:11.912Z,2.10
2023-01-13T08:15:42.320Z,5.50
2023-01-13T08:18:12.806Z,1.70
2023-01-13T08:20:43.101Z,4.10
2023-01-13T08:23:13.412Z,3.80
2023-01-13T08:25:43.760Z,1.50
2023-01-13T08:28:14.365Z,2.10
2023-01-13T08:30:44.807Z,2.40
2023-01-13T08:33:15.536Z,2.30
2023-01-13T08:35:45.903Z,0.70
2023-01-13T08:38:16.172Z,2.20
2023-01-13T08:40:46.501Z,2.90
2023-01-13T08:43:19.096Z,1.70
2023-01-13T08:45:58.270Z,1.30
2023-01-13T08:48:31.468Z,3.00
2023-01-13T08:51:09.712Z,2.10
2023-01-13T08:53:40.172Z,2.60
2023-01-13T08:56:13.051Z,1.80
2023-01-13T08:58:43.545Z,2.40
2023-01-13T09:01:16.545Z,4.20
2023-01-13T09:03:46.995Z,1.90
2023-01-13T09:06:17.391Z,3.10
2023-01-13T09:08:48.602Z,4.20
2023-01-13T09:11:44.540Z,1.20
2023-01-13T09:14:14.856Z,1.70
2023-01-13T09:16:45.195Z,3.50
2023-01-13T09:19:15.697Z,5.80
2023-01-13T09:21:46.056Z,5.30
2023-01-13T09:24:16.688Z,3.70
2023-01-13T09:26:47.082Z,1.70
2023-01-13T09:29:17.599Z,1.50
2023-01-13T09:31:48.093Z,4.60
2023-01-13T09:34:37.682Z,3.20
2023-01-13T09:37:08.859Z,5.00
2023-01-13T09:39:39.591Z,1.70
2023-01-13T09:42:36.182Z,4.90
2023-01-13T09:45:10.255Z,3.00
2023-01-13T09:47:47.326Z,2.80
2023-01-13T09:50:30.616Z,3.20
2023-01-13T09:53:01.644Z,3.80
2023-01-13T09:55:36.687Z,2.30
2023-01-13T09:58:15.101Z,3.60
2023-01-13T10:00:47.933Z,3.80
2023-01-13T10:05:57.400Z,3.00
2023-01-13T10:08:30.330Z,4.50
2023-01-13T10:11:22.749Z,4.30
2023-01-13T10:13:56.477Z,4.40
2023-01-13T10:16:34.439Z,2.30
2023-01-13T10:19:11.144Z,5.00
2023-01-13T10:21:56.401Z,3.30
2023-01-13T10:24:34.419Z,2.90
2023-01-13T10:27:06.465Z,4.70
2023-01-13T10:29:38.891Z,2.80
2023-01-13T10:32:10.170Z,3.10
2023-01-13T10:34:50.602Z,3.50
2023-01-13T10:37:26.820Z,3.40
2023-01-13T10:40:01.648Z,4.70
2023-01-13T10:42:31.947Z,6.60
2023-01-13T10:45:03.612Z,5.90
2023-01-13T10:47:36.464Z,5.00
2023-01-13T10:50:25.541Z,4.60
2023-01-13T10:53:01.436Z,5.20
2023-01-13T10:55:33.590Z,5.20
2023-01-13T10:58:15.483Z,4.60
2023-01-13T11:00:46.074Z,4.00
2023-01-13T11:03:21.355Z,3.20
2023-01-13T11:05:53.753Z,2.00
2023-01-13T11:08:26.842Z,3.80
2023-01-13T11:10:58.938Z,3.70
2023-01-13T11:13:33.208Z,3.00
2023-01-13T11:16:06.748Z,4.60
2023-01-13T11:18:43.595Z,3.50
2023-01-13T11:21:21.129Z,4.70
2023-01-13T11:23:54.591Z,2.70
2023-01-13T11:26:32.411Z,3.80
2023-01-13T11:29:07.148Z,4.20
2023-01-13T11:31:40.635Z,3.70
2023-01-13T11:34:19.135Z,2.70
2023-01-13T11:36:52.723Z,4.40
2023-01-13T11:39:27.128Z,4.70
2023-01-13T11:42:18.604Z,5.20
2023-01-13T11:44:52.536Z,2.00
2023-01-13T11:47:24.890Z,3.80
2023-01-13T11:49:55.247Z,4.20
2023-01-13T11:52:29.047Z,3.50
2023-01-13T11:55:11.021Z,2.90
2023-01-13T11:57:52.011Z,3.70
2023-01-13T12:00:35.684Z,3.80
2023-01-13T12:03:21.398Z,4.20
2023-01-13T12:06:02.884Z,4.70
2023-01-13T12:08:47.731Z,10.80
2023-01-13T12:11:22.762Z,5.20
2023-01-13T12:14:00.395Z,4.50
2023-01-13T12:16:31.394Z,4.60
2023-01-13T12:19:20.089Z,5.00
2023-01-13T12:22:04.661Z,7.30
2023-01-13T12:24:39.059Z,5.30
2023-01-13T12:27:14.656Z,5.10
2023-01-13T12:29:46.747Z,3.30
2023-01-13T12:32:20.982Z,3.60
2023-01-13T12:35:17.418Z,3.30
2023-01-13T12:37:53.755Z,4.50
2023-01-13T12:40:39.961Z,4.60
2023-01-13T12:43:34.991Z,4.50
2023-01-13T12:46:38.917Z,7.30
2023-01-13T12:49:15.782Z,3.70
2023-01-13T12:52:15.970Z,6.40
2023-01-13T12:55:16.746Z,3.20
2023-01-13T12:58:19.626Z,3.70
2023-01-13T13:00:59.751Z,2.80
2023-01-13T13:03:32.969Z,5.20
2023-01-13T13:06:10.134Z,5.30
2023-01-13T13:08:51.487Z,5.60
2023-01-13T13:12:09.428Z,5.40
2023-01-13T13:15:04.381Z,7.10
2023-01-13T13:18:00.178Z,5.10
2023-01-13T13:20:54.970Z,6.20
2023-01-13T13:23:49.827Z,3.90
2023-01-13T13:26:27.835Z,3.50
2023-01-13T13:29:10.794Z,5.70
2023-01-13T13:32:06.083Z,5.00
2023-01-13T13:34:46.809Z,3.80
2023-01-13T13:37:34.104Z,3.10
2023-01-13T13:40:30.407Z,4.30
2023-01-13T13:43:19.390Z,2.60
2023-01-13T13:46:12.118Z,6.90
2023-01-13T13:48:54.732Z,3.80
2023-01-13T13:51:30.844Z,2.80
2023-01-13T13:54:03.848Z,3.20
2023-01-13T13:56:41.894Z,4.50
2023-01-13T13:59:18.455Z,1.40
2023-01-13T14:02:00.940Z,2.90
2023-01-13T14:04:35.458Z,2.80
2023-01-13T14:07:21.484Z,5.00
2023-01-13T14:09:56.886Z,4.30
2023-01-13T14:12:30.837Z,4.80
2023-01-13T14:15:03.867Z,5.70
2023-01-13T14:17:36.167Z,2.90
2023-01-13T14:20:16.851Z,3.80
2023-01-13T14:30:55.085Z,3.70
2023-01-13T14:33:34.893Z,6.10
2023-01-13T14:36:19.500Z,3.30
2023-01-13T14:38:51.885Z,4.40
2023-01-13T14:41:25.278Z,2.40
2023-01-13T14:43:59.488Z,3.90
2023-01-13T14:46:40.202Z,6.10
2023-01-13T14:49:20.902Z,4.50
2023-01-13T14:51:51.335Z,3.80
2023-01-13T14:54:56.322Z,2.40
2023-01-13T14:57:31.933Z,5.20
2023-01-13T15:00:18.767Z,2.50
2023-01-13T15:02:50.444Z,2.90
2023-01-13T15:05:33.799Z,7.10
2023-01-13T15:08:06.709Z,6.00
2023-01-13T15:13:20.126Z,4.30
2023-01-13T15:15:53.506Z,6.70
2023-01-13T15:18:23.939Z,5.40
2023-01-13T15:20:54.419Z,3.90
2023-01-13T15:23:26.654Z,6.40
2023-01-13T15:25:57.120Z,3.40
2023-01-13T15:28:28.277Z,5.50
2023-01-13T15:31:00.582Z,5.00
2023-01-13T15:33:30.958Z,5.10
2023-01-13T15:36:01.751Z,6.80
2023-01-13T15:38:32.199Z,5.70
2023-01-13T15:41:02.459Z,4.10
2023-01-13T15:43:50.307Z,7.90
2023-01-13T15:46:39.500Z,8.50
2023-01-13T15:49:17.100Z,6.70
2023-01-13T15:51:48.157Z,5.80
2023-01-13T15:54:19.895Z,5.00
2023-01-13T15:56:50.161Z,4.70
2023-01-13T15:59:25.515Z,8.10
2023-01-13T16:01:55.825Z,5.00
2023-01-13T16:04:26.152Z,2.10
2023-01-13T16:06:56.551Z,6.10
2023-01-13T16:09:26.895Z,4.10
2023-01-13T16:11:57.181Z,5.60
2023-01-13T16:14:29.393Z,6.60
2023-01-13T16:16:59.827Z,5.20
2023-01-13T16:19:30.263Z,8.40
2023-01-13T16:22:00.577Z,4.70
2023-01-13T16:24:30.967Z,4.60
2023-01-13T16:27:01.388Z,4.10
2023-01-13T16:29:31.854Z,3.50
2023-01-13T16:32:02.345Z,6.70
2023-01-13T16:34:32.673Z,4.50
2023-01-13T16:37:03.496Z,6.50
2023-01-13T16:39:34.404Z,7.50
2023-01-13T16:42:04.931Z,7.60
2023-01-13T16:44:35.386Z,6.80
2023-01-13T16:47:06.449Z,4.20
2023-01-13T16:49:40.218Z,8.40
2023-01-13T16:52:10.557Z,5.10
2023-01-13T16:54:41.053Z,7.20
2023-01-13T16:57:13.981Z,6.60
2023-01-13T16:59:47.739Z,5.30
2023-01-13T17:02:21.017Z,5.50
2023-01-13T17:04:51.626Z,11.30
2023-01-13T17:07:25.144Z,2.50
2023-01-13T17:09:55.477Z,8.40
2023-01-13T17:12:25.938Z,4.60
2023-01-13T17:14:58.138Z,5.70
2023-01-13T17:17:30.278Z,5.80
2023-01-13T17:20:01.784Z,2.30
2023-01-13T17:22:32.461Z,6.70
2023-01-13T17:25:04.960Z,7.50
2023-01-13T17:27:35.490Z,4.80
2023-01-13T17:30:10.520Z,5.30
2023-01-13T17:32:41.496Z,5.50
2023-01-13T17:35:14.228Z,4.90
2023-01-13T17:37:44.707Z,6.50
2023-01-13T17:40:15.968Z,4.40
2023-01-13T17:42:46.267Z,6.00
2023-01-13T17:45:16.580Z,3.90
2023-01-13T17:47:47.573Z,6.20
2023-01-13T17:50:18.550Z,7.80
2023-01-13T17:52:48.925Z,6.30
2023-01-13T17:55:19.703Z,5.20
2023-01-13T17:57:50.031Z,2.70
2023-01-13T18:00:21.735Z,5.00
2023-01-13T18:02:52.514Z,5.40
2023-01-13T18:05:23.638Z,3.80
2023-01-13T18:07:54.841Z,4.80
2023-01-13T18:10:25.346Z,7.40
2023-01-13T18:12:56.178Z,5.30
2023-01-13T18:15:26.851Z,5.20
2023-01-13T18:17:57.294Z,7.00
2023-01-13T18:20:45.526Z,4.50
2023-01-13T18:23:37.886Z,3.30
2023-01-13T18:26:39.092Z,5.70
2023-01-13T18:29:09.917Z,4.00
2023-01-13T18:31:40.933Z,7.90
2023-01-13T18:34:11.559Z,6.30
2023-01-13T18:36:41.939Z,4.00
2023-01-13T18:39:12.375Z,2.30
2023-01-13T18:42:00.498Z,10.70
2023-01-13T18:44:30.927Z,5.40
2023-01-13T18:47:01.624Z,7.10
2023-01-13T18:49:32.238Z,9.10
2023-01-13T18:52:02.712Z,7.30
2023-01-13T18:54:33.093Z,10.00
2023-01-13T18:57:03.663Z,6.10
2023-01-13T18:59:34.796Z,5.40
2023-01-13T19:02:11.197Z,5.80
2023-01-13T19:04:42.029Z,6.80
2023-01-13T19:07:13.389Z,3.40
2023-01-13T19:09:44.334Z,6.10
2023-01-13T19:12:16.133Z,22.10
2023-01-13T19:14:47.384Z,7.50
2023-01-13T19:17:18.683Z,11.70
2023-01-13T19:19:50.891Z,5.20
2023-01-13T19:22:23.406Z,4.50
2023-01-13T19:24:53.990Z,6.30
2023-01-13T19:27:24.724Z,6.70
2023-01-13T19:29:58.281Z,7.50
2023-01-13T19:32:30.626Z,4.80
2023-01-13T19:35:01.291Z,10.20
2023-01-13T19:37:33.639Z,9.50
2023-01-13T19:40:09.233Z,9.50
2023-01-13T19:42:57.455Z,6.30
2023-01-13T19:45:28.074Z,7.10
2023-01-13T19:48:01.569Z,9.80
2023-01-13T19:50:32.948Z,10.50
2023-01-13T19:53:03.525Z,7.90
2023-01-13T19:55:34.503Z,8.10
2023-01-13T19:58:05.081Z,6.40
2023-01-13T20:00:35.512Z,7.80
2023-01-13T20:03:10.655Z,5.20
2023-01-13T20:05:43.253Z,7.60
2023-01-13T20:08:13.667Z,10.10
2023-01-13T20:10:46.813Z,5.20
2023-01-13T20:13:17.383Z,12.40
2023-01-13T20:15:47.809Z,8.00
2023-01-13T20:18:18.718Z,11.80
2023-01-13T20:20:49.586Z,6.80
2023-01-13T20:23:19.933Z,10.50
2023-01-13T20:25:50.497Z,13.40
2023-01-13T20:28:20.902Z,8.00
2023-01-13T20:30:51.333Z,7.20
2023-01-13T20:33:22.167Z,5.00
2023-01-13T20:36:00.239Z,12.20
2023-01-13T20:38:36.862Z,5.70
2023-01-13T20:41:22.906Z,8.20
2023-01-13T20:43:53.560Z,5.90
2023-01-13T20:46:24.313Z,11.70
2023-01-13T20:48:54.879Z,5.30
2023-01-13T20:51:25.227Z,8.10
2023-01-13T20:53:56.720Z,3.40
2023-01-13T20:56:27.087Z,6.80
2023-01-13T20:58:57.544Z,7.60
2023-01-13T21:01:28.185Z,9.40
2023-01-13T21:03:59.967Z,8.20
2023-01-13T21:06:30.878Z,8.90
2023-01-13T21:09:01.494Z,7.50
2023-01-13T21:11:49.317Z,8.50
2023-01-13T21:14:39.142Z,6.50
2023-01-13T21:17:33.285Z,7.30
2023-01-13T21:20:04.637Z,8.50
2023-01-13T21:22:35.871Z,10.70
2023-01-13T21:25:07.271Z,11.00
2023-01-13T21:27:37.693Z,12.80
2023-01-13T21:30:13.317Z,5.70
2023-01-13T21:32:44.005Z,10.00
2023-01-13T21:35:15.310Z,9.50
2023-01-13T21:37:46.179Z,11.20
2023-01-13T21:40:16.795Z,8.10
2023-01-13T21:43:04.720Z,8.40
2023-01-13T21:45:52.777Z,6.50
2023-01-13T21:48:23.262Z,5.90
2023-01-13T21:50:53.604Z,6.90
2023-01-13T21:53:23.886Z,6.40
2023-01-13T21:55:54.445Z,9.40
2023-01-13T21:58:25.068Z,7.80
2023-01-13T22:00:55.537Z,7.60
2023-01-13T22:03:25.987Z,8.40
2023-01-13T22:05:59.467Z,3.70
2023-01-13T22:08:32.640Z,12.50
2023-01-13T22:11:04.854Z,7.10
2023-01-13T22:13:52.855Z,8.00
2023-01-13T22:16:23.859Z,11.80
2023-01-13T22:18:54.745Z,6.50
2023-01-13T22:21:25.280Z,5.20
2023-01-13T22:23:56.235Z,4.60
2023-01-13T22:26:26.906Z,7.40
2023-01-13T22:28:57.524Z,3.30
2023-01-13T22:31:28.036Z,5.30
2023-01-13T22:33:58.645Z,7.00
2023-01-13T22:36:29.174Z,2.60
2023-01-13T22:39:00.380Z,3.10
2023-01-13T22:41:31.019Z,6.30
2023-01-13T22:44:01.392Z,4.70
2023-01-13T22:46:32.124Z,4.40
2023-01-13T22:49:02.567Z,5.70
2023-01-13T22:51:32.994Z,10.10
2023-01-13T22:54:03.329Z,7.80
2023-01-13T22:56:34.368Z,5.50
2023-01-13T22:59:06.227Z,4.20
2023-01-13T23:01:37.355Z,5.70
2023-01-13T23:04:08.129Z,6.70
2023-01-13T23:06:38.759Z,9.70
2023-01-13T23:09:10.675Z,8.50
2023-01-13T23:11:42.499Z,14.10
2023-01-13T23:14:14.910Z,12.80
2023-01-13T23:16:47.111Z,9.10
2023-01-13T23:19:17.710Z,6.60
2023-01-13T23:21:48.131Z,8.00
2023-01-13T23:24:18.531Z,8.30
2023-01-13T23:26:49.094Z,7.50
2023-01-13T23:29:19.457Z,10.40
2023-01-13T23:31:49.875Z,7.20
2023-01-13T23:34:20.512Z,11.00
2023-01-13T23:36:50.937Z,6.10
2023-01-13T23:39:21.413Z,7.30
2023-01-13T23:41:51.884Z,6.70
2023-01-13T23:44:22.241Z,6.90
2023-01-13T23:46:52.610Z,11.60
2023-01-13T23:49:23.044Z,13.40
2023-01-13T23:51:53.919Z,6.50
2023-01-13T23:54:24.524Z,9.90
2023-01-13T23:56:55.208Z,9.80
2023-01-13T23:59:26.383Z,6.60
